12WI weather

Memorial Hospital of Taylor County Heliport
Medford, Wisconsin, United States

Public forecast

Using degrees Fahrenheit for public forecast. Weather courtesy of forecast.io.

METAR (pilot weather report)

Closest report is Taylor County Airport, 3.1 nm (5.7 km) SE. Retrieved 2019/08/22 17:35 UTC (22 minutes ago):

KMDZ 221735Z AUTO 05003KT 10SM CLR 19/11 A3008 RMK AO2 T01900111

TAF (pilot weather forecast)

Closest forecast is Wausau Downtown Airport, 33.4 nm (61.9 km) ESE. Retrieved 2019/08/22 12:22 UTC (6 hours ago):

TAF KAUW 221120Z 2212/2312 VRB03KT P6SM BKN070 FM221600 07006KT P6SM SCT035 BKN060 FM222200 09003KT P6SM SCT070 FM230300 07002KT P6SM SKC